createdAt,value
2023-05-18T00:02:17.722Z,5.50
2023-05-18T00:04:46.999Z,6.60
2023-05-18T00:07:16.038Z,6.60
2023-05-18T00:09:47.052Z,6.40
2023-05-18T00:12:15.736Z,7.00
2023-05-18T00:14:44.403Z,6.80
2023-05-18T00:17:15.490Z,6.30
2023-05-18T00:19:47.107Z,7.90
2023-05-18T00:22:19.672Z,7.70
2023-05-18T00:24:50.611Z,6.60
2023-05-18T00:27:20.214Z,7.20
2023-05-18T00:29:49.164Z,7.40
2023-05-18T00:32:17.581Z,5.50
2023-05-18T00:34:46.068Z,7.10
2023-05-18T00:37:16.292Z,6.80
2023-05-18T00:39:46.728Z,7.90
2023-05-18T00:42:15.190Z,6.00
2023-05-18T00:44:44.193Z,6.20
2023-05-18T00:47:13.486Z,7.20
2023-05-18T00:49:42.537Z,6.20
2023-05-18T00:52:11.882Z,6.90
2023-05-18T00:54:40.570Z,6.00
2023-05-18T00:57:09.450Z,7.70
2023-05-18T00:59:41.527Z,6.70
2023-05-18T01:02:12.614Z,5.20
2023-05-18T01:04:43.711Z,5.20
2023-05-18T01:07:17.710Z,5.10
2023-05-18T01:09:46.493Z,5.80
2023-05-18T01:12:33.517Z,4.70
2023-05-18T01:15:26.671Z,4.80
2023-05-18T01:18:05.906Z,5.10
2023-05-18T01:20:50.269Z,3.80
2023-05-18T01:23:55.558Z,4.90
2023-05-18T01:26:38.173Z,3.80
2023-05-18T01:29:10.586Z,3.70
2023-05-18T01:31:41.733Z,3.80
2023-05-18T01:34:10.816Z,3.40
2023-05-18T01:36:39.416Z,2.90
2023-05-18T01:39:09.832Z,2.80
2023-05-18T01:41:46.742Z,2.90
2023-05-18T01:44:29.665Z,2.90
2023-05-18T01:47:27.950Z,3.40
2023-05-18T01:50:15.014Z,3.90
2023-05-18T01:52:45.350Z,3.90
2023-05-18T01:55:18.840Z,4.10
2023-05-18T01:58:17.537Z,4.00
2023-05-18T02:00:47.458Z,4.10
2023-05-18T02:03:17.999Z,3.50
2023-05-18T02:05:46.648Z,3.00
2023-05-18T02:08:40.428Z,3.30
2023-05-18T02:11:13.301Z,2.80
2023-05-18T02:13:43.110Z,2.20
2023-05-18T02:16:12.433Z,1.90
2023-05-18T02:18:43.575Z,2.20
2023-05-18T02:21:14.092Z,2.40
2023-05-18T02:23:45.446Z,1.80
2023-05-18T02:26:17.330Z,2.10
2023-05-18T02:28:54.368Z,2.50
2023-05-18T02:31:22.908Z,2.90
2023-05-18T02:34:23.851Z,2.30
2023-05-18T02:36:55.342Z,2.80
2023-05-18T02:39:23.721Z,2.80
2023-05-18T02:41:52.410Z,3.00
2023-05-18T02:44:24.769Z,2.50
2023-05-18T02:46:54.895Z,2.50
2023-05-18T02:49:29.213Z,2.60
2023-05-18T02:51:57.699Z,2.90
2023-05-18T02:54:26.578Z,2.40
2023-05-18T02:56:58.238Z,2.50
2023-05-18T02:59:46.582Z,2.30
2023-05-18T03:02:18.610Z,2.90
2023-05-18T03:04:49.350Z,2.50
2023-05-18T03:07:18.989Z,2.50
2023-05-18T03:09:47.715Z,2.40
2023-05-18T03:12:16.565Z,2.10
2023-05-18T03:14:45.350Z,2.10
2023-05-18T03:17:14.288Z,2.30
2023-05-18T03:19:43.042Z,2.20
2023-05-18T03:22:12.116Z,2.30
2023-05-18T03:24:41.459Z,2.50
2023-05-18T03:27:14.103Z,2.40
2023-05-18T03:29:43.709Z,2.50
2023-05-18T03:32:37.538Z,2.40
2023-05-18T03:35:07.187Z,2.30
2023-05-18T03:37:35.876Z,2.20
2023-05-18T03:40:11.734Z,2.20
2023-05-18T03:42:44.608Z,2.00
2023-05-18T03:45:14.222Z,2.70
2023-05-18T03:47:43.985Z,2.40
2023-05-18T03:50:13.180Z,2.30
2023-05-18T03:52:45.081Z,2.00
2023-05-18T03:55:14.227Z,2.00
2023-05-18T03:57:42.869Z,2.70
2023-05-18T04:00:13.818Z,2.10
2023-05-18T04:02:47.981Z,2.50
2023-05-18T04:05:17.826Z,2.10
2023-05-18T04:08:25.931Z,2.80
2023-05-18T04:11:19.705Z,2.10
2023-05-18T04:13:48.388Z,1.90
2023-05-18T04:16:19.392Z,2.00
2023-05-18T04:18:48.031Z,1.80
2023-05-18T04:21:17.829Z,1.80
2023-05-18T04:23:48.763Z,2.30
2023-05-18T04:26:20.457Z,3.10
2023-05-18T04:28:50.640Z,1.90
2023-05-18T04:31:19.454Z,1.60
2023-05-18T04:33:48.209Z,2.10
2023-05-18T04:36:21.573Z,2.00
2023-05-18T04:38:53.773Z,2.10
2023-05-18T04:41:26.559Z,2.10
2023-05-18T04:43:56.975Z,2.00
2023-05-18T04:46:31.298Z,1.90
2023-05-18T04:49:01.625Z,1.80
2023-05-18T04:51:35.226Z,1.80
2023-05-18T04:54:05.444Z,1.90
2023-05-18T04:56:34.796Z,2.20
2023-05-18T04:59:03.213Z,2.00
2023-05-18T05:01:32.745Z,2.00
2023-05-18T05:04:01.532Z,1.60
2023-05-18T05:06:30.397Z,2.20
2023-05-18T05:13:58.099Z,2.00
2023-05-18T05:16:28.544Z,1.90
2023-05-18T05:18:57.737Z,1.90
2023-05-18T05:21:53.940Z,2.00
2023-05-18T05:24:23.852Z,1.80
2023-05-18T05:26:52.700Z,2.30
2023-05-18T05:29:21.941Z,1.80
2023-05-18T05:32:20.523Z,2.40
2023-05-18T05:34:51.666Z,3.40
2023-05-18T05:37:48.443Z,4.30
2023-05-18T05:41:10.353Z,4.10
2023-05-18T05:44:34.112Z,4.20
2023-05-18T05:47:03.763Z,3.50
2023-05-18T05:49:35.386Z,3.50
2023-05-18T05:52:06.025Z,3.70
2023-05-18T05:54:35.011Z,3.70
2023-05-18T05:57:35.478Z,4.00
2023-05-18T06:00:05.248Z,4.20
2023-05-18T06:02:49.539Z,4.40
2023-05-18T06:05:29.132Z,3.60
2023-05-18T06:07:58.428Z,4.10
2023-05-18T06:10:26.913Z,4.00
2023-05-18T06:13:00.019Z,3.90
2023-05-18T06:15:36.985Z,3.80
2023-05-18T06:18:06.236Z,3.90
2023-05-18T06:20:39.978Z,4.30
2023-05-18T06:23:08.919Z,3.80
2023-05-18T06:25:53.638Z,4.00
2023-05-18T06:28:40.547Z,3.90
2023-05-18T06:31:58.230Z,4.80
2023-05-18T06:34:57.270Z,4.70
2023-05-18T06:37:26.073Z,4.50
2023-05-18T06:39:56.380Z,4.50
2023-05-18T06:42:26.403Z,3.90
2023-05-18T06:45:32.593Z,4.50
2023-05-18T06:48:13.445Z,4.40
2023-05-18T06:50:43.143Z,4.70
2023-05-18T06:53:13.367Z,4.30
2023-05-18T06:55:42.354Z,5.10
2023-05-18T06:58:16.059Z,4.80
2023-05-18T07:00:44.954Z,4.00
2023-05-18T07:03:13.934Z,4.50
2023-05-18T07:05:45.846Z,4.40
2023-05-18T07:08:14.534Z,5.00
2023-05-18T07:10:47.568Z,4.60
2023-05-18T07:13:41.554Z,4.60
2023-05-18T07:16:10.910Z,4.60
2023-05-18T07:18:40.175Z,4.90
2023-05-18T07:21:10.984Z,4.50
2023-05-18T07:23:43.499Z,4.90
2023-05-18T07:26:12.854Z,4.30
2023-05-18T07:28:45.128Z,3.90
2023-05-18T07:31:41.592Z,5.00
2023-05-18T07:34:11.681Z,3.80
2023-05-18T07:36:40.163Z,4.10
2023-05-18T07:39:09.572Z,4.20
2023-05-18T07:41:38.264Z,4.50
2023-05-18T07:45:00.179Z,4.40
2023-05-18T07:47:28.618Z,4.40
2023-05-18T07:50:26.997Z,4.80
2023-05-18T07:52:57.680Z,3.80
2023-05-18T07:55:28.236Z,4.90
2023-05-18T07:57:57.760Z,4.00
2023-05-18T08:00:26.494Z,4.20
2023-05-18T08:02:55.221Z,4.50
2023-05-18T08:05:29.253Z,4.90
2023-05-18T08:07:58.289Z,5.70
2023-05-18T08:10:27.492Z,5.50
2023-05-18T08:13:21.558Z,5.20
2023-05-18T08:16:15.807Z,6.20
2023-05-18T08:19:10.112Z,5.70
2023-05-18T08:22:04.116Z,6.20
2023-05-18T08:24:58.393Z,6.20
2023-05-18T08:27:30.250Z,7.00
2023-05-18T08:30:24.961Z,7.70
2023-05-18T08:33:19.677Z,7.20
2023-05-18T08:35:49.346Z,6.40
2023-05-18T08:38:18.240Z,7.30
2023-05-18T08:41:00.021Z,6.90
2023-05-18T08:44:16.159Z,6.50
2023-05-18T08:46:51.383Z,7.10
2023-05-18T08:50:14.311Z,6.70
2023-05-18T08:55:37.971Z,7.00
2023-05-18T08:58:18.998Z,7.10
2023-05-18T09:00:47.691Z,5.90
2023-05-18T09:03:16.832Z,6.40
2023-05-18T09:05:53.754Z,7.00
2023-05-18T09:13:05.887Z,6.60
2023-05-18T09:16:25.375Z,8.00
2023-05-18T09:18:56.214Z,7.20
2023-05-18T09:21:26.928Z,6.90
2023-05-18T09:24:24.912Z,6.80
2023-05-18T09:26:55.026Z,6.00
2023-05-18T09:29:54.617Z,5.70
2023-05-18T09:32:28.993Z,5.00
2023-05-18T09:35:07.973Z,5.00
2023-05-18T09:38:29.903Z,5.20
2023-05-18T09:41:01.348Z,5.30
2023-05-18T09:43:56.574Z,4.20
2023-05-18T09:46:57.529Z,4.90
2023-05-18T09:49:26.073Z,5.40
2023-05-18T09:52:22.212Z,5.10
2023-05-18T09:55:22.443Z,5.20
2023-05-18T09:57:51.429Z,4.50
2023-05-18T10:00:24.214Z,5.90
2023-05-18T10:02:57.532Z,4.90
2023-05-18T10:05:55.470Z,5.50
2023-05-18T10:08:25.586Z,4.70
2023-05-18T10:10:58.686Z,5.50
2023-05-18T10:13:29.604Z,5.50
2023-05-18T10:16:02.397Z,6.00
2023-05-18T10:18:57.628Z,5.00
2023-05-18T10:21:30.503Z,5.10
2023-05-18T10:24:05.420Z,5.90
2023-05-18T10:26:40.346Z,4.60
2023-05-18T10:29:11.390Z,5.60
2023-05-18T10:31:42.119Z,5.10
2023-05-18T10:34:12.440Z,5.20
2023-05-18T10:36:43.289Z,5.10
2023-05-18T10:39:20.466Z,5.10
2023-05-18T10:41:51.811Z,4.10
2023-05-18T10:44:24.803Z,4.90
2023-05-18T10:46:54.682Z,5.60
2023-05-18T10:49:27.699Z,5.20
2023-05-18T10:54:50.870Z,4.70
2023-05-18T10:57:22.420Z,4.30
2023-05-18T10:59:50.906Z,5.30
2023-05-18T11:02:28.155Z,5.10
2023-05-18T11:04:57.841Z,4.40
2023-05-18T11:07:30.535Z,5.10
2023-05-18T11:10:03.969Z,5.40
2023-05-18T11:12:38.616Z,4.50
2023-05-18T11:16:01.149Z,4.30
2023-05-18T11:18:38.765Z,4.60
2023-05-18T11:21:36.621Z,3.90
2023-05-18T11:24:29.992Z,4.60
2023-05-18T11:27:31.774Z,5.50
2023-05-18T11:30:32.047Z,4.60
2023-05-18T11:33:14.330Z,4.90
2023-05-18T11:36:09.218Z,4.80
2023-05-18T11:38:53.406Z,4.40
2023-05-18T11:42:01.409Z,4.80
2023-05-18T11:44:30.436Z,4.10
2023-05-18T11:47:06.297Z,4.10
2023-05-18T11:50:24.750Z,4.40
2023-05-18T11:53:27.579Z,4.40
2023-05-18T11:56:13.925Z,4.80
2023-05-18T11:58:45.584Z,4.10
2023-05-18T12:01:16.001Z,4.50
2023-05-18T12:03:48.461Z,4.80
2023-05-18T12:06:18.382Z,4.30
2023-05-18T12:08:47.072Z,4.70
2023-05-18T12:11:16.883Z,4.10
2023-05-18T12:13:47.421Z,5.10
2023-05-18T12:16:16.151Z,5.30
2023-05-18T12:18:54.122Z,4.90
2023-05-18T12:21:23.092Z,5.60
2023-05-18T12:23:59.654Z,5.70
2023-05-18T12:26:30.087Z,5.00
2023-05-18T12:29:02.674Z,5.60
2023-05-18T12:31:57.658Z,5.20
2023-05-18T12:34:31.059Z,5.30
2023-05-18T12:36:59.847Z,5.80
2023-05-18T12:39:28.873Z,4.70
2023-05-18T12:42:16.566Z,5.30
2023-05-18T12:45:12.188Z,5.20
2023-05-18T12:47:43.003Z,5.40
2023-05-18T12:50:11.833Z,5.10
2023-05-18T12:52:40.796Z,5.30
2023-05-18T12:55:10.920Z,5.40
2023-05-18T12:57:42.275Z,6.00
2023-05-18T13:00:13.233Z,4.20
2023-05-18T13:02:41.640Z,5.40
2023-05-18T13:05:12.563Z,5.30
2023-05-18T13:07:47.450Z,5.10
